Terminal Aerodrome Forecast
Issued by NWS

Home | Current Version | Previous Version | Text Only | Print | Product List | Glossary On
Versions: 1 2 3 4 5 6 7 8 9 10 11 12 13 14 15 16 17 18 19 20 21 22 23 24 25 26 27 28 29 30 31 32
000
FTUS44 KEWX 180420 AAE
TAFSSF
TAF AMD
KSSF 180420Z 1804/1824 00000KT 4SM BR OVC003
     FM180500 VRB03KT 3/4SM BR OVC002
     FM180600 VRB03KT 1/4SM -DZ FG OVC001
     FM181800 09004KT 4SM BR OVC005
     FM182100 12004KT P6SM VCSH BKN010=

USA.gov is the U.S. government's official web portal to all federal, state and local government web resources and services.